createdAt,value
2019-01-30T00:01:21.375Z,2.09
2019-01-30T00:04:11.233Z,2.06
2019-01-30T00:07:01.330Z,2.06
2019-01-30T00:09:50.998Z,2.05
2019-01-30T00:12:41.337Z,2.03
2019-01-30T00:15:31.210Z,1.99
2019-01-30T00:18:21.096Z,1.98
2019-01-30T00:21:10.866Z,1.94
2019-01-30T00:24:00.948Z,1.93
2019-01-30T00:26:50.712Z,1.85
2019-01-30T00:29:40.912Z,1.87
2019-01-30T00:32:30.562Z,1.89
2019-01-30T00:35:20.720Z,1.87
2019-01-30T00:38:11.132Z,1.85
2019-01-30T00:41:01.199Z,1.85
2019-01-30T00:43:51.003Z,1.80
2019-01-30T00:46:40.562Z,1.81
2019-01-30T00:49:30.393Z,1.79
2019-01-30T00:52:20.688Z,1.76
2019-01-30T00:55:11.703Z,1.78
2019-01-30T00:58:01.655Z,1.77
2019-01-30T01:00:51.836Z,1.74
2019-01-30T01:03:41.600Z,1.77
2019-01-30T01:06:31.487Z,1.71
2019-01-30T01:09:21.583Z,1.73
2019-01-30T01:12:11.458Z,1.69
2019-01-30T01:15:01.588Z,1.73
2019-01-30T01:17:51.988Z,1.67
2019-01-30T01:20:42.414Z,1.69
2019-01-30T01:23:32.278Z,1.70
2019-01-30T01:26:22.590Z,1.71
2019-01-30T01:29:12.439Z,1.66
2019-01-30T01:32:02.664Z,1.69
2019-01-30T01:34:52.528Z,1.70
2019-01-30T01:37:42.713Z,1.72
2019-01-30T01:40:33.212Z,1.65
2019-01-30T01:43:22.933Z,1.61
2019-01-30T01:46:12.665Z,1.65
2019-01-30T01:49:02.558Z,1.61
2019-01-30T01:51:52.276Z,1.61
2019-01-30T01:54:42.428Z,1.60
2019-01-30T01:57:32.069Z,1.61
2019-01-30T02:00:22.931Z,1.57
2019-01-30T02:03:12.794Z,1.57
2019-01-30T02:06:03.062Z,1.55
2019-01-30T02:08:52.710Z,1.53
2019-01-30T02:11:42.314Z,1.53
2019-01-30T02:14:32.064Z,1.47
2019-01-30T02:17:22.196Z,1.47
2019-01-30T02:20:19.257Z,1.50
2019-01-30T02:23:08.729Z,1.52
2019-01-30T02:25:58.967Z,1.47
2019-01-30T02:28:48.750Z,1.48
2019-01-30T02:31:38.656Z,1.50
2019-01-30T02:34:28.440Z,1.47
2019-01-30T02:37:18.115Z,1.54
2019-01-30T02:40:10.381Z,1.54
2019-01-30T02:43:00.417Z,1.54
2019-01-30T02:45:50.556Z,1.57
2019-01-30T02:48:40.014Z,1.58
2019-01-30T02:51:29.945Z,1.57
2019-01-30T02:54:20.004Z,1.53
2019-01-30T02:57:09.837Z,1.56
2019-01-30T02:59:59.938Z,1.54
2019-01-30T03:02:50.327Z,1.54
2019-01-30T03:05:40.467Z,1.51
2019-01-30T03:08:30.917Z,1.50
2019-01-30T03:11:20.648Z,1.47
2019-01-30T03:14:10.571Z,1.44
2019-01-30T03:17:00.093Z,1.39
2019-01-30T03:19:49.912Z,1.36
2019-01-30T03:22:40.051Z,1.32
2019-01-30T03:25:29.727Z,1.35
2019-01-30T03:28:20.026Z,1.28
2019-01-30T03:31:17.723Z,1.21
2019-01-30T03:34:03.664Z,1.25
2019-01-30T03:36:53.905Z,1.20
2019-01-30T03:39:43.808Z,1.22
2019-01-30T03:42:33.612Z,1.20
2019-01-30T03:45:24.248Z,1.18
2019-01-30T03:48:13.904Z,1.16
2019-01-30T03:51:03.719Z,1.14
2019-01-30T03:53:53.476Z,1.10
2019-01-30T03:56:43.762Z,1.10
2019-01-30T03:59:33.673Z,1.02
2019-01-30T04:02:23.399Z,1.04
2019-01-30T04:05:13.162Z,0.97
2019-01-30T04:08:03.214Z,0.96
2019-01-30T04:10:53.306Z,0.99
2019-01-30T04:13:43.226Z,0.97
2019-01-30T04:16:33.344Z,0.94
2019-01-30T04:19:23.505Z,0.94
2019-01-30T04:22:13.585Z,0.97
2019-01-30T04:25:03.809Z,0.98
2019-01-30T04:27:54.420Z,0.83
2019-01-30T04:30:45.513Z,0.91
2019-01-30T04:33:35.530Z,0.84
2019-01-30T04:36:25.378Z,0.86
2019-01-30T04:39:15.229Z,0.78
2019-01-30T04:42:05.901Z,0.93
2019-01-30T04:44:58.152Z,1.02
2019-01-30T04:47:49.773Z,1.00
2019-01-30T04:50:40.770Z,1.05
2019-01-30T04:53:30.447Z,0.92
2019-01-30T04:56:20.686Z,0.93
2019-01-30T04:59:10.285Z,0.80
2019-01-30T05:02:03.295Z,0.92
2019-01-30T05:04:55.956Z,0.90
2019-01-30T05:07:46.192Z,0.87
2019-01-30T05:10:37.155Z,0.96
2019-01-30T05:13:28.204Z,0.95
2019-01-30T05:16:18.527Z,0.71
2019-01-30T05:19:08.447Z,0.92
2019-01-30T05:21:58.549Z,1.01
2019-01-30T05:24:48.485Z,0.99
2019-01-30T05:27:38.291Z,1.06
2019-01-30T05:30:32.997Z,0.96
2019-01-30T05:33:22.739Z,1.04
2019-01-30T05:36:12.681Z,1.03
2019-01-30T05:39:03.874Z,1.15
2019-01-30T05:41:53.620Z,1.16
2019-01-30T05:44:43.651Z,1.22
2019-01-30T05:47:33.386Z,1.06
2019-01-30T05:50:23.196Z,1.10
2019-01-30T05:53:12.947Z,1.07
2019-01-30T05:56:02.775Z,1.14
2019-01-30T05:58:53.958Z,0.97
2019-01-30T06:01:44.016Z,1.09
2019-01-30T06:04:34.241Z,0.97
2019-01-30T06:07:24.219Z,0.98
2019-01-30T06:10:14.240Z,1.10
2019-01-30T06:13:04.893Z,1.01
2019-01-30T06:15:54.628Z,1.06
2019-01-30T06:18:44.617Z,1.08
2019-01-30T06:21:34.536Z,1.05
2019-01-30T06:24:24.572Z,1.02
2019-01-30T06:27:14.677Z,1.08
2019-01-30T06:30:05.944Z,1.05
2019-01-30T06:32:55.789Z,1.01
2019-01-30T06:35:45.517Z,1.08
2019-01-30T06:38:35.330Z,1.11
2019-01-30T06:41:25.178Z,1.13
2019-01-30T06:44:15.368Z,1.05
2019-01-30T06:47:05.923Z,1.05
2019-01-30T06:49:55.395Z,1.12
2019-01-30T06:52:45.416Z,0.97
2019-01-30T06:55:35.675Z,0.91
2019-01-30T06:58:25.467Z,0.91
2019-01-30T07:01:15.578Z,1.01
2019-01-30T07:04:05.370Z,1.07
2019-01-30T07:06:55.247Z,1.14
2019-01-30T07:09:45.526Z,1.16
2019-01-30T07:12:35.337Z,1.11
2019-01-30T07:15:25.246Z,1.07
2019-01-30T07:18:15.380Z,1.11
2019-01-30T07:21:05.135Z,1.07
2019-01-30T07:23:55.124Z,1.14
2019-01-30T07:26:44.954Z,1.28
2019-01-30T07:29:34.818Z,1.34
2019-01-30T07:32:24.955Z,1.42
2019-01-30T07:35:15.177Z,1.37
2019-01-30T07:38:05.130Z,1.43
2019-01-30T07:40:55.293Z,1.62
2019-01-30T07:43:45.688Z,1.69
2019-01-30T07:46:34.939Z,1.87
2019-01-30T07:49:24.379Z,1.80
2019-01-30T07:52:14.423Z,1.96
2019-01-30T07:55:04.615Z,1.97
2019-01-30T07:57:54.604Z,2.07
2019-01-30T08:00:44.922Z,1.97
2019-01-30T08:03:34.985Z,2.16
2019-01-30T08:06:24.856Z,2.29
2019-01-30T08:09:15.007Z,2.39
2019-01-30T08:12:05.121Z,2.42
2019-01-30T08:14:54.948Z,2.51
2019-01-30T08:17:45.005Z,2.44
2019-01-30T08:20:35.646Z,2.47
2019-01-30T08:23:25.240Z,2.59
2019-01-30T08:26:15.359Z,2.63
2019-01-30T08:29:05.942Z,2.75
2019-01-30T08:31:55.933Z,2.81
2019-01-30T08:34:45.357Z,2.95
2019-01-30T08:37:35.428Z,2.68
2019-01-30T08:40:25.440Z,2.72
2019-01-30T08:43:15.302Z,2.96
2019-01-30T08:46:05.255Z,2.78
2019-01-30T08:48:55.788Z,3.10
2019-01-30T08:51:45.660Z,3.16
2019-01-30T08:54:35.646Z,3.29
2019-01-30T08:57:25.740Z,3.47
2019-01-30T09:00:21.511Z,3.47
2019-01-30T09:03:14.992Z,3.53
2019-01-30T09:06:03.095Z,3.60
2019-01-30T09:08:54.198Z,3.64
2019-01-30T09:11:43.944Z,3.46
2019-01-30T09:14:34.144Z,3.53
2019-01-30T09:17:24.051Z,3.05
2019-01-30T09:20:17.658Z,3.20
2019-01-30T09:23:08.005Z,3.35
2019-01-30T09:25:58.061Z,3.41
2019-01-30T09:28:48.238Z,3.17
2019-01-30T09:31:38.383Z,3.15
2019-01-30T09:34:28.827Z,3.37
2019-01-30T09:37:18.823Z,3.42
2019-01-30T09:40:11.297Z,3.29
2019-01-30T09:43:01.094Z,3.92
2019-01-30T09:45:51.130Z,4.29
2019-01-30T09:48:41.123Z,4.57
2019-01-30T09:51:30.721Z,4.88
2019-01-30T09:54:20.705Z,4.39
2019-01-30T09:57:10.511Z,4.97
2019-01-30T10:00:00.654Z,5.46
2019-01-30T10:02:50.755Z,6.15
2019-01-30T10:05:40.794Z,6.71
2019-01-30T10:08:30.715Z,6.69
2019-01-30T10:11:20.576Z,5.94
2019-01-30T10:14:10.547Z,6.00
2019-01-30T10:17:00.381Z,6.03
2019-01-30T10:19:50.592Z,6.15
2019-01-30T10:22:40.593Z,6.52
2019-01-30T10:25:30.815Z,5.91
2019-01-30T10:28:22.052Z,5.23
2019-01-30T10:31:13.211Z,5.53
2019-01-30T10:34:03.120Z,5.72
2019-01-30T10:36:53.298Z,5.96
2019-01-30T10:39:43.066Z,5.49
2019-01-30T10:42:32.649Z,5.64
2019-01-30T10:45:23.669Z,5.69
2019-01-30T10:48:13.024Z,6.02
2019-01-30T10:51:02.851Z,5.66
2019-01-30T10:53:53.104Z,6.22
2019-01-30T10:56:43.330Z,6.23
2019-01-30T10:59:33.000Z,6.55
2019-01-30T11:02:24.033Z,6.80
2019-01-30T11:05:15.963Z,6.53
2019-01-30T11:08:06.937Z,6.10
2019-01-30T11:11:07.274Z,5.90
2019-01-30T11:13:48.521Z,6.36
2019-01-30T11:16:38.236Z,6.80
2019-01-30T11:19:28.035Z,6.64
2019-01-30T11:22:18.030Z,6.90
2019-01-30T11:25:13.178Z,7.68
2019-01-30T11:28:02.933Z,7.62
2019-01-30T11:30:52.999Z,8.22
2019-01-30T11:33:43.031Z,8.46
2019-01-30T11:36:32.885Z,9.22
2019-01-30T11:39:22.799Z,9.29
2019-01-30T11:42:13.090Z,9.62
2019-01-30T11:45:02.741Z,9.83
2019-01-30T11:47:53.239Z,10.86
2019-01-30T11:50:44.043Z,11.41
2019-01-30T11:53:34.095Z,11.57
2019-01-30T11:56:24.068Z,10.61
2019-01-30T11:59:14.129Z,9.74
2019-01-30T12:02:04.400Z,10.38
2019-01-30T12:04:54.250Z,10.98
2019-01-30T12:07:44.147Z,11.05
2019-01-30T12:10:34.077Z,11.30
2019-01-30T12:13:24.459Z,10.37
2019-01-30T12:16:14.153Z,10.31
2019-01-30T12:19:07.053Z,10.22
2019-01-30T12:21:56.841Z,10.02
2019-01-30T12:24:46.526Z,10.06
2019-01-30T12:27:36.878Z,10.07
2019-01-30T12:30:27.651Z,9.79
2019-01-30T12:33:17.575Z,9.22
2019-01-30T12:36:07.860Z,8.94
2019-01-30T12:38:57.878Z,8.14
2019-01-30T12:41:47.858Z,7.60
2019-01-30T12:44:42.856Z,7.28
2019-01-30T12:47:32.365Z,6.91
2019-01-30T12:50:22.394Z,6.93
2019-01-30T12:53:12.145Z,6.88
2019-01-30T12:56:02.145Z,6.51
2019-01-30T12:58:52.394Z,6.46
2019-01-30T13:01:42.659Z,6.40
2019-01-30T13:04:38.651Z,6.06
2019-01-30T13:07:24.123Z,6.08
2019-01-30T13:10:15.179Z,5.91
2019-01-30T13:13:06.513Z,5.75
2019-01-30T13:15:56.918Z,5.79
2019-01-30T13:18:46.661Z,5.71
2019-01-30T13:21:36.693Z,5.81
2019-01-30T13:24:27.079Z,5.67
2019-01-30T13:27:16.899Z,5.73
2019-01-30T13:30:13.101Z,5.74
2019-01-30T13:33:04.003Z,5.64
2019-01-30T13:35:53.582Z,5.30
2019-01-30T13:38:43.162Z,5.37
2019-01-30T13:41:33.197Z,5.13
2019-01-30T13:44:23.031Z,5.25
2019-01-30T13:47:13.310Z,5.02
2019-01-30T13:50:03.114Z,4.79
2019-01-30T13:52:53.254Z,5.12
2019-01-30T13:55:43.587Z,5.21
2019-01-30T13:58:33.400Z,4.87
2019-01-30T14:01:23.262Z,4.86
2019-01-30T14:04:13.638Z,4.81
2019-01-30T14:07:05.354Z,5.10
2019-01-30T14:09:55.270Z,5.28
2019-01-30T14:12:45.103Z,4.97
2019-01-30T14:15:35.514Z,5.21
2019-01-30T14:18:25.291Z,5.26
2019-01-30T14:21:15.113Z,5.47
2019-01-30T14:24:05.941Z,5.56
2019-01-30T14:26:58.113Z,5.66
2019-01-30T14:29:57.938Z,5.77
2019-01-30T14:32:39.837Z,5.91
2019-01-30T14:35:33.283Z,5.97
2019-01-30T14:38:24.317Z,5.98
2019-01-30T14:41:14.509Z,6.05
2019-01-30T14:44:04.762Z,6.12
2019-01-30T14:46:54.943Z,6.16
2019-01-30T14:49:45.009Z,6.09
2019-01-30T14:52:35.253Z,6.03
2019-01-30T14:55:25.645Z,5.76
2019-01-30T14:58:15.409Z,5.91
2019-01-30T15:01:06.235Z,5.48
2019-01-30T15:03:55.590Z,5.22
2019-01-30T15:06:45.904Z,5.41
2019-01-30T15:09:35.981Z,5.45
2019-01-30T15:12:25.550Z,5.58
2019-01-30T15:15:18.112Z,5.23
2019-01-30T15:18:09.190Z,5.21
2019-01-30T15:20:59.119Z,5.22
2019-01-30T15:23:49.107Z,5.20
2019-01-30T15:26:38.560Z,5.26
2019-01-30T15:29:28.815Z,5.16
2019-01-30T15:32:19.039Z,5.24
2019-01-30T15:35:09.377Z,5.30
2019-01-30T15:37:59.877Z,5.31
2019-01-30T15:40:50.350Z,5.33
2019-01-30T15:43:40.234Z,5.34
2019-01-30T15:46:30.299Z,5.37
2019-01-30T15:49:20.421Z,5.30
2019-01-30T15:52:10.579Z,5.34
2019-01-30T15:55:00.597Z,5.42
2019-01-30T15:57:54.873Z,5.41
2019-01-30T16:01:20.588Z,5.44
2019-01-30T16:04:10.618Z,5.10
2019-01-30T16:07:00.498Z,5.26
2019-01-30T16:09:50.313Z,5.00
2019-01-30T16:12:41.257Z,5.11
2019-01-30T16:15:42.272Z,5.21
2019-01-30T16:18:32.291Z,5.29
2019-01-30T16:21:23.547Z,5.29
2019-01-30T16:24:13.978Z,5.20
2019-01-30T16:27:04.216Z,5.16
2019-01-30T16:29:54.383Z,5.26
2019-01-30T16:32:44.642Z,5.08
2019-01-30T16:35:37.478Z,5.02
2019-01-30T16:38:26.869Z,5.10
2019-01-30T16:41:16.796Z,5.11
2019-01-30T16:44:07.912Z,4.98
2019-01-30T16:46:57.967Z,5.10
2019-01-30T16:49:48.491Z,5.03
2019-01-30T16:52:38.621Z,5.02
2019-01-30T16:55:28.601Z,4.93
2019-01-30T16:58:18.813Z,5.00
2019-01-30T17:01:08.808Z,4.98
2019-01-30T17:03:58.990Z,5.02
2019-01-30T17:06:49.437Z,5.07
2019-01-30T17:09:39.291Z,5.09
2019-01-30T17:12:28.849Z,5.08
2019-01-30T17:15:27.774Z,5.17
2019-01-30T17:18:18.033Z,5.15
2019-01-30T17:21:08.508Z,5.17
2019-01-30T17:23:58.822Z,5.19
2019-01-30T17:26:49.685Z,5.17
2019-01-30T17:29:39.938Z,5.21
2019-01-30T17:32:29.821Z,5.21
2019-01-30T17:35:19.926Z,5.23
2019-01-30T17:38:10.302Z,5.26
2019-01-30T17:41:00.309Z,5.24
2019-01-30T17:43:50.265Z,5.24
2019-01-30T17:46:40.234Z,5.21
2019-01-30T17:49:30.294Z,5.23
2019-01-30T17:52:20.844Z,5.25
2019-01-30T17:55:11.590Z,5.30
2019-01-30T17:58:03.064Z,5.28
2019-01-30T18:00:59.888Z,5.35
2019-01-30T18:03:50.206Z,5.34
2019-01-30T18:06:41.864Z,5.20
2019-01-30T18:09:31.792Z,5.22
2019-01-30T18:12:22.036Z,5.27
2019-01-30T18:15:13.264Z,5.28
2019-01-30T18:18:03.714Z,5.32
2019-01-30T18:20:53.989Z,5.19
2019-01-30T18:23:44.478Z,5.16
2019-01-30T18:26:34.390Z,5.17
2019-01-30T18:29:24.906Z,5.11
2019-01-30T18:32:15.477Z,5.05
2019-01-30T18:35:06.861Z,5.07
2019-01-30T18:37:57.345Z,4.80
2019-01-30T18:40:48.283Z,4.93
2019-01-30T18:43:38.532Z,5.00
2019-01-30T18:46:29.687Z,5.04
2019-01-30T18:49:21.408Z,4.92
2019-01-30T18:52:12.371Z,4.95
2019-01-30T18:55:02.761Z,5.09
2019-01-30T18:57:53.612Z,4.89
2019-01-30T19:00:45.257Z,4.80
2019-01-30T19:03:36.637Z,4.91
2019-01-30T19:06:26.839Z,4.92
2019-01-30T19:09:17.596Z,4.89
2019-01-30T19:12:10.208Z,4.98
2019-01-30T19:15:00.483Z,5.03
2019-01-30T19:17:51.407Z,5.06
2019-01-30T19:20:43.988Z,5.11
2019-01-30T19:23:33.862Z,5.17
2019-01-30T19:26:24.106Z,5.28
2019-01-30T19:29:14.667Z,5.35
2019-01-30T19:32:06.133Z,5.36
2019-01-30T19:34:57.282Z,5.41
2019-01-30T19:37:47.810Z,5.36
2019-01-30T19:40:38.972Z,5.37
2019-01-30T19:43:29.221Z,5.51
2019-01-30T19:46:19.716Z,5.43
2019-01-30T19:49:09.855Z,5.51
2019-01-30T19:51:59.955Z,5.56
2019-01-30T19:54:50.521Z,5.62
2019-01-30T19:57:42.009Z,5.67
2019-01-30T20:00:39.002Z,5.65
2019-01-30T20:03:33.274Z,5.70
2019-01-30T20:06:24.040Z,5.73
2019-01-30T20:09:19.959Z,5.74
2019-01-30T20:12:12.323Z,5.77
2019-01-30T20:15:04.709Z,5.83
2019-01-30T20:17:55.815Z,5.89
2019-01-30T20:20:46.474Z,5.85
2019-01-30T20:23:38.969Z,5.92
2019-01-30T20:26:29.990Z,5.94
2019-01-30T20:29:20.331Z,5.95
2019-01-30T20:32:11.027Z,6.01
2019-01-30T20:35:01.360Z,6.04
2019-01-30T20:38:03.124Z,6.03
2019-01-30T20:40:53.504Z,6.02
2019-01-30T20:43:48.310Z,6.03
2019-01-30T20:46:39.823Z,6.01
2019-01-30T20:49:30.009Z,6.04
2019-01-30T20:52:20.418Z,6.10
2019-01-30T20:55:11.340Z,6.05
2019-01-30T20:58:01.195Z,6.04
2019-01-30T21:00:51.798Z,5.97
2019-01-30T21:03:42.375Z,5.93
2019-01-30T21:06:32.861Z,5.81
2019-01-30T21:09:23.313Z,5.77
2019-01-30T21:12:13.417Z,5.74
2019-01-30T21:15:03.911Z,5.85
2019-01-30T21:17:54.230Z,5.76
2019-01-30T21:20:44.431Z,5.72
2019-01-30T21:23:34.434Z,5.78
2019-01-30T21:26:24.848Z,5.62
2019-01-30T21:29:15.321Z,5.55
2019-01-30T21:32:05.744Z,5.59
2019-01-30T21:34:55.842Z,5.62
2019-01-30T21:37:48.995Z,5.66
2019-01-30T21:40:38.355Z,5.67
2019-01-30T21:43:29.836Z,5.75
2019-01-30T21:46:19.769Z,5.69
2019-01-30T21:49:09.877Z,5.77
2019-01-30T21:52:00.848Z,5.75
2019-01-30T21:54:50.749Z,5.80
2019-01-30T21:57:40.792Z,5.88
2019-01-30T22:00:31.128Z,5.87
2019-01-30T22:03:21.092Z,5.87
2019-01-30T22:06:11.003Z,5.84
2019-01-30T22:09:01.144Z,5.86
2019-01-30T22:11:52.591Z,5.90
2019-01-30T22:14:42.467Z,5.97
2019-01-30T22:17:32.269Z,5.91
2019-01-30T22:20:24.675Z,5.97
2019-01-30T22:23:14.146Z,6.03
2019-01-30T22:26:04.129Z,5.99
2019-01-30T22:28:54.393Z,5.98
2019-01-30T22:31:44.181Z,5.90
2019-01-30T22:34:33.996Z,5.95
2019-01-30T22:37:23.867Z,5.94
2019-01-30T22:40:14.059Z,5.96
2019-01-30T22:43:04.187Z,5.96
2019-01-30T22:45:53.968Z,5.91
2019-01-30T22:48:43.676Z,5.83
2019-01-30T22:51:33.818Z,5.88
2019-01-30T22:54:24.087Z,5.80
2019-01-30T22:57:13.901Z,5.77
2019-01-30T23:00:06.609Z,5.73
2019-01-30T23:03:00.565Z,5.77
2019-01-30T23:06:30.591Z,5.81
2019-01-30T23:10:00.177Z,5.73
2019-01-30T23:13:32.026Z,5.77
2019-01-30T23:17:04.419Z,5.67
2019-01-30T23:20:27.027Z,5.60
2019-01-30T23:24:11.625Z,5.55
2019-01-30T23:27:44.463Z,5.61
2019-01-30T23:31:24.291Z,5.59
2019-01-30T23:34:55.776Z,5.63
2019-01-30T23:38:37.004Z,5.54
2019-01-30T23:41:47.020Z,5.53
2019-01-30T23:45:10.985Z,5.59
2019-01-30T23:48:53.588Z,5.65
2019-01-30T23:52:37.643Z,5.62
2019-01-30T23:56:21.060Z,5.67
2019-01-30T23:59:50.288Z,5.68
